Kankakee, Illinois
Current Conditions -  °F | °C
As of 8:35 PM on Saturday 20 Dec 2014 (Local Time) from KIKK Reporting Station
Overcast Overcast  
Wind Chill: 27°   Ceiling: 6000
Heat Index: 32°   Visibility: 10mi
Dew Point: 28°   Wind: 5mph
Humidity: 85%   Direction: 140°SE
Pressure: 30.28"   Gusts: NA
Location:  41.12°N, 87.86°W
Report Text: KIKK 210235Z AUTO 14004KT 10SM OVC060 00/M02 A3028 RMK AO2 T00001023
Loading
Personal Weather Stations






























Interactive Weather Map New forecast layout! Learn more

10-Day Weather Forecast

Advertisements
Track Severe Weather on mobile